Data for 08/04/2017

Time Sea-Level Adjusted Pressure Absolute Pressure Temperature Relative Humidity Dew Point   
(mb) (inHg) (mb) (inHg) (C) (F) (%) (C) (F)
00:05 1021 30.15 850 25.1 17.4 63.3 46 5.8 42.5
00:10 1021 30.15 850 25.1 17.3 63.1 46 5.8 42.5
00:15 1021 30.15 850 25.1 17.3 63.1 47 5.9 42.6
00:20 1021 30.15 850 25.1 17.3 63.2 46 5.8 42.4
00:25 1021 30.15 850 25.1 17.4 63.3 46 5.8 42.4
00:30 1021 30.15 850 25.1 17.4 63.3 46 5.9 42.6
00:35 1021 30.15 850 25.1 17.3 63.1 47 6 42.7
00:40 1021 30.15 850 25.1 17.1 62.8 47 5.9 42.7
00:45 1021 30.15 850 25.1 17 62.5 48 5.9 42.7
00:50 1021 30.15 850 25.1 16.9 62.3 48 5.9 42.7
00:55 1021 30.15 850 25.1 16.8 62.3 48 5.9 42.6
01:00 1021 30.15 850 25.1 16.9 62.3 48 5.9 42.6
01:05 1020 30.12 850 25.1 16.8 62.3 48 5.9 42.7
01:10 1020 30.12 850 25.1 16.7 62.1 48 5.9 42.6
01:15 1020 30.12 850 25.1 16.6 61.9 48 5.8 42.4
01:20 1020 30.12 850 25.1 16.7 62 49 5.9 42.6
01:25 1020 30.12 850 25.1 16.6 61.8 49 5.9 42.6
01:30 1020 30.12 850 25.1 16.5 61.6 49 5.8 42.5
01:35 1020 30.12 850 25.1 16.4 61.5 49 5.9 42.6
01:40 1020 30.12 850 25.1 16.3 61.3 50 5.9 42.6
01:45 1020 30.12 850 25.1 16.2 61.1 50 5.8 42.5
01:50 1020 30.12 850 25.1 16.1 61 50 5.8 42.5
01:55 1020 30.12 849 25.07 16 60.8 50 5.8 42.5
02:00 1020 30.12 849 25.07 15.9 60.7 50 5.7 42.3
02:05 1020 30.12 849 25.07 15.9 60.6 51 5.8 42.5
02:10 1020 30.12 849 25.07 15.8 60.5 51 5.8 42.4
02:15 1020 30.12 849 25.07 15.8 60.5 51 5.8 42.5
02:20 1020 30.12 849 25.07 15.8 60.4 51 5.7 42.3
02:25 1020 30.12 849 25.07 15.7 60.3 51 5.8 42.4
02:30 1020 30.12 849 25.07 15.7 60.3 51 5.7 42.3
02:35 1020 30.12 849 25.07 15.8 60.5 51 5.8 42.4
02:40 1020 30.12 849 25.07 15.8 60.4 51 5.9 42.6
02:45 1020 30.12 849 25.07 15.7 60.3 52 5.9 42.6
02:50 1020 30.12 849 25.07 15.8 60.4 52 5.9 42.6
02:55 1020 30.12 849 25.07 15.7 60.3 52 5.9 42.7
03:00 1020 30.12 849 25.07 15.7 60.2 52 5.8 42.5
03:05 1020 30.12 849 25.07 15.7 60.3 52 5.9 42.6
03:10 1020 30.12 849 25.07 15.6 60.2 52 5.9 42.5
03:15 1020 30.12 849 25.07 15.6 60.1 52 5.9 42.6
03:20 1020 30.12 849 25.07 15.6 60 52 5.8 42.5
03:25 1020 30.12 849 25.07 15.5 59.9 53 5.9 42.6
03:30 1020 30.12 849 25.07 15.3 59.6 53 6 42.7
03:35 1020 30.12 849 25.07 15.2 59.4 53 5.9 42.6
03:40 1020 30.12 849 25.07 15.2 59.4 53 5.9 42.5
03:45 1020 30.12 849 25.07 15.1 59.1 54 5.9 42.6
03:50 1020 30.12 849 25.07 15 59 53 5.6 42.2
03:55 1020 30.12 849 25.07 15.1 59.2 53 5.8 42.4
04:00 1020 30.12 849 25.07 15.1 59.1 54 5.8 42.5
04:05 1020 30.12 849 25.07 14.9 58.8 54 5.9 42.6
04:10 1020 30.12 849 25.07 14.8 58.6 54 5.8 42.4
04:15 1020 30.12 849 25.07 14.8 58.7 54 5.8 42.4
04:20 1020 30.12 849 25.07 14.7 58.5 55 5.8 42.5
04:25 1020 30.12 849 25.07 14.6 58.3 55 5.7 42.3
04:30 1020 30.12 849 25.07 14.5 58.2 56 5.8 42.5
04:35 1020 30.12 849 25.07 14.3 57.8 56 5.8 42.4
04:40 1020 30.12 849 25.07 14.3 57.7 56 5.7 42.3
04:45 1020 30.12 849 25.07 14.3 57.7 56 5.6 42
04:50 1020 30.12 849 25.07 14.5 58.1 55 5.6 42.1
04:55 1019 30.09 849 25.07 14.6 58.3 54 5.5 42
05:00 1019 30.09 849 25.07 14.6 58.3 54 5.6 42.1
05:05 1019 30.09 849 25.07 14.6 58.2 54 5.6 42
05:10 1019 30.09 849 25.07 14.6 58.2 54 5.5 41.8
05:15 1019 30.09 849 25.07 14.6 58.2 55 5.6 42.1
05:20 1019 30.09 849 25.07 14.5 58.1 54 5.3 41.5
05:25 1019 30.09 849 25.07 14.7 58.4 54 5.4 41.8
05:30 1019 30.09 849 25.07 14.6 58.3 54 5.5 41.8
05:35 1019 30.09 849 25.07 14.6 58.3 53 5.3 41.6
05:40 1019 30.09 849 25.07 14.6 58.3 54 5.5 41.9
05:45 1019 30.09 849 25.07 14.5 58.1 55 5.6 42.1
05:50 1019 30.09 849 25.07 14.2 57.5 56 5.6 42.2
05:55 1019 30.09 849 25.07 14 57.2 56 5.5 41.9
06:00 1019 30.09 849 25.07 14.1 57.3 56 5.4 41.8
06:05 1019 30.09 849 25.07 14.2 57.5 56 5.5 41.9
06:10 1019 30.09 849 25.07 14.1 57.4 56 5.5 42
06:15 1019 30.09 848 25.04 14.1 57.3 56 5.5 41.8
06:20 1019 30.09 848 25.04 14 57.3 56 5.4 41.8
06:25 1019 30.09 848 25.04 14.1 57.3 56 5.4 41.7
06:30 1019 30.09 849 25.07 14.1 57.4 55 5.4 41.7
06:35 1019 30.09 849 25.07 14.1 57.3 56 5.5 41.9
06:40 1019 30.09 849 25.07 14 57.2 56 5.5 41.8
06:45 1019 30.09 849 25.07 13.9 57.1 56 5.4 41.7
06:50 1019 30.09 849 25.07 13.9 57.1 56 5.4 41.7
06:55 1019 30.09 849 25.07 14 57.2 56 5.4 41.8
07:00 1019 30.09 849 25.07 13.9 57.1 55 5.2 41.3
07:05 1019 30.09 849 25.07 13.9 57 55 5.2 41.3
07:10 1019 30.09 849 25.07 13.9 57 56 5.3 41.5
07:15 1019 30.09 849 25.07 13.9 57.1 55 5.1 41.1
07:20 1019 30.09 849 25.07 14.1 57.3 55 5.2 41.4
07:25 1019 30.09 849 25.07 14 57.1 56 5.4 41.8
07:30 1019 30.09 849 25.07 14 57.3 55 5.2 41.4
07:35 1019 30.09 849 25.07 14.2 57.5 55 5.2 41.4
07:40 1019 30.09 849 25.07 14.3 57.7 53 5 41.1
07:45 1019 30.09 849 25.07 14.5 58.1 53 5.1 41.2
07:50 1019 30.09 849 25.07 14.7 58.4 53 5.3 41.5
07:55 1019 30.09 849 25.07 14.9 58.8 53 5.6 42.1
08:00 1019 30.09 849 25.07 15 59 53 5.5 41.9
08:05 1019 30.09 849 25.07 15.4 59.7 52 5.7 42.3
08:10 1019 30.09 849 25.07 15.6 60.1 52 5.9 42.6
08:15 1019 30.09 849 25.07 15.9 60.6 51 6 42.8
08:20 1019 30.09 849 25.07 16.2 61.1 51 6.1 43.1
08:25 1019 30.09 849 25.07 16.6 61.9 50 6.3 43.4
08:30 1019 30.09 849 25.07 16.9 62.4 48 5.9 42.7
08:35 1019 30.09 849 25.07 17 62.5 49 6.4 43.5
08:40 1019 30.09 848 25.04 17.4 63.3 47 6.1 42.9
08:45 1019 30.09 848 25.04 17.6 63.7 46 5.9 42.7
08:50 1019 30.09 849 25.07 18.2 64.8 44 5.8 42.5
08:55 1019 30.09 849 25.07 18.6 65.4 43 5.9 42.6
09:00 1019 30.09 849 25.07 18.9 66 42 5.9 42.7
09:05 1019 30.09 849 25.07 19.1 66.4 43 6.4 43.5
09:10 1019 30.09 849 25.07 19.5 67.1 40 5.8 42.4
09:15 1019 30.09 849 25.07 19.8 67.6 40 6 42.7
09:20 1019 30.09 849 25.07 19.7 67.4 40 5.8 42.5
09:25 1019 30.09 849 25.07 20.1 68.3 38 5.4 41.7
09:30 1019 30.09 849 25.07 20.1 68.2 37 5.3 41.6
09:35 1019 30.09 848 25.04 20.9 69.6 36 5.4 41.8
09:40 1019 30.09 848 25.04 21.5 70.8 37 6.2 43.2
09:45 1019 30.09 848 25.04 21.5 70.6 36 5.9 42.7
09:50 1019 30.09 848 25.04 21.1 70 36 5.8 42.5
09:55 1019 30.09 848 25.04 21.3 70.4 36 5.7 42.3
10:00 1019 30.09 848 25.04 22.3 72.2 33 5.5 41.9
10:05 1019 30.09 848 25.04 22.7 72.9 32 5.3 41.5
10:10 1019 30.09 848 25.04 22.8 73 32 5.5 41.9
10:15 1019 30.09 848 25.04 23 73.4 30 4.9 40.8
10:20 1019 30.09 848 25.04 23.2 73.8 30 4.7 40.4
10:25 1019 30.09 848 25.04 23.8 74.9 29 5.1 41.3
10:30 1019 30.09 848 25.04 24.2 75.5 30 5.5 41.9
10:35 1019 30.09 848 25.04 24.4 76 30 5.9 42.6
10:40 1019 30.09 848 25.04 24.7 76.4 28 5.2 41.4
10:45 1019 30.09 848 25.04 24.4 76 29 5.4 41.6
10:50 1019 30.09 848 25.04 24.2 75.5 29 5 41
10:55 1019 30.09 848 25.04 24.9 76.8 27 4.8 40.6
11:00 1019 30.09 848 25.04 25.6 78 26 5.1 41.1
11:05 1019 30.09 848 25.04 25.4 77.7 26 5 41
11:10 1019 30.09 848 25.04 25.7 78.2 27 5.6 42.1
11:15 1019 30.09 848 25.04 25.4 77.6 27 5.1 41.2
11:20 1019 30.09 848 25.04 25.8 78.5 27 5.8 42.5
11:25 1019 30.09 848 25.04 25.4 77.7 28 6.1 42.9
11:30 1019 30.09 848 25.04 25.1 77.2 27 4.9 40.8
11:35 1019 30.09 848 25.04 25.8 78.5 26 5 41
11:40 1019 30.09 848 25.04 25.9 78.5 27 5.4 41.8
11:45 1019 30.09 848 25.04 25.9 78.5 26 5.3 41.5
11:50 1019 30.09 848 25.04 25.7 78.3 28 6.2 43.2
11:55 1019 30.09 848 25.04 26.4 79.5 26 5.4 41.8
12:00 1019 30.09 848 25.04 26.2 79.2 26 5.5 41.9
12:05 1018 30.06 848 25.04 26.3 79.3 24 4.6 40.3
12:10 1018 30.06 848 25.04 25.9 78.6 27 5.5 41.8
12:15 1018 30.06 848 25.04 25.8 78.4 25 4.6 40.3
12:20 1018 30.06 847 25.01 26.1 79 25 4.7 40.4
12:25 1018 30.06 847 25.01 26.6 80 24 4.8 40.6
12:30 1018 30.06 847 25.01 26.9 80.3 24 5 41.1
12:35 1018 30.06 847 25.01 26.9 80.4 24 4.9 40.9
12:40 1018 30.06 847 25.01 27 80.5 22 3.7 38.7
12:45 1018 30.06 847 25.01 27.3 81.1 22 3.8 38.8
12:50 1018 30.06 847 25.01 27.4 81.4 20 2.8 37.1
12:55 1018 30.06 847 25.01 27.2 81 21 3.3 38
13:00 1018 30.06 847 25.01 27.7 81.8 21 3.5 38.2
13:05 1018 30.06 847 25.01 27.6 81.8 21 3.6 38.4
13:10 1018 30.06 847 25.01 28 82.4 19 2.8 37
13:15 1018 30.06 847 25.01 28.3 82.9 18 1.7 35
13:20 1018 30.06 847 25.01 28.7 83.6 18 2.1 35.7
13:25 1018 30.06 847 25.01 28.8 83.9 17 1.7 35.1
13:30 1018 30.06 847 25.01 28.7 83.6 17 1.6 35
13:35 1018 30.06 847 25.01 29.1 84.3 16 1 33.8
13:40 1018 30.06 847 25.01 29.1 84.4 16 0.7 33.2
13:45 1018 30.06 847 25.01 28.9 84 17 1.6 34.9
13:50 1018 30.06 847 25.01 29 84.2 17 2.2 35.9
13:55 1018 30.06 847 25.01 28.7 83.6 19 3 37.4
14:00 1017 30.03 847 25.01 28.4 83 18 2.4 36.4
14:05 1017 30.03 847 25.01 28.8 83.8 18 2.3 36.1
14:10 1017 30.03 847 25.01 29.5 85 17 2.4 36.4
14:15 1017 30.03 847 25.01 29.3 84.8 18 2.7 36.8
14:20 1017 30.03 847 25.01 29.2 84.6 17 2.3 36.1
14:25 1017 30.03 846 24.98 29.5 85 17 2.4 36.4
14:30 1017 30.03 846 24.98 29.8 85.6 18 3.5 38.3
14:35 1017 30.03 846 24.98 29.3 84.8 17 2 35.6
14:40 1017 30.03 846 24.98 29.3 84.8 16 1.1 33.9
14:45 1017 30.03 846 24.98 29.6 85.3 17 2.4 36.3
14:50 1017 30.03 846 24.98 29.3 84.8 17 2 35.5
14:55 1017 30.03 846 24.98 29 84.2 18 2.7 36.9
15:00 1017 30.03 846 24.98 29.5 85.1 16 1.2 34.1
15:05 1017 30.03 846 24.98 29.3 84.7 18 2.5 36.6
15:10 1017 30.03 846 24.98 29.4 84.9 17 2.1 35.7
15:15 1017 30.03 846 24.98 28.7 83.6 18 2 35.6
15:20 1017 30.03 846 24.98 28.4 83.2 17 1.4 34.6
15:25 1017 30.03 846 24.98 28.9 84 17 1.8 35.3
15:30 1017 30.03 846 24.98 29.3 84.7 17 2.3 36.1
15:35 1017 30.03 846 24.98 29.9 85.8 15 0.8 33.5
15:40 1017 30.03 846 24.98 30.1 86.1 15 1.4 34.5
15:45 1017 30.03 846 24.98 29.3 84.7 17 2.1 35.8
15:50 1017 30.03 846 24.98 29.3 84.7 16 1.5 34.7
15:55 1017 30.03 846 24.98 30.1 86.3 15 0.9 33.7
16:00 1017 30.03 846 24.98 29.4 84.8 15 0.2 32.4
16:05 1016 30 846 24.98 29 84.1 15 0.5 32.9
16:10 1016 30 846 24.98 29 84.2 16 0.6 33.1
16:15 1016 30 846 24.98 29.3 84.7 14 -0.2 31.6
16:20 1016 30 846 24.98 29.7 85.4 14 -0.2 31.7
16:25 1016 30 845 24.95 30.1 86.2 15 0.7 33.3
16:30 1016 30 845 24.95 30.5 86.9 13 -0.2 31.7
16:35 1016 30 845 24.95 30.5 86.9 13 -0.5 31.2
16:40 1016 30 845 24.95 29.6 85.2 13 -1.1 30.1
16:45 1016 30 845 24.95 29.4 85 14 -0.6 31
16:50 1016 30 845 24.95 29.5 85.1 13 -1.5 29.3
16:55 1016 30 845 24.95 29.4 84.9 13 -1.2 29.8
17:00 1016 30 845 24.95 29.7 85.5 13 -1.1 30.1
17:05 1016 30 845 24.95 29.7 85.4 14 -0.4 31.3
17:10 1016 30 845 24.95 29.5 85 14 -0.7 30.7
17:15 1016 30 845 24.95 29.9 85.8 14 -0.4 31.3
17:20 1016 30 845 24.95 29.3 84.7 14 -0.4 31.2
17:25 1016 30 845 24.95 29.5 85.2 14 -0.6 30.9
17:30 1016 30 845 24.95 30 86 14 -0.4 31.3
17:35 1016 30 845 24.95 30 86 14 -0.1 31.8
17:40 1016 30 845 24.95 29.2 84.6 14 -0.3 31.4
17:45 1016 30 845 24.95 29 84.1 15 0.3 32.6
17:50 1016 30 845 24.95 29.3 84.8 15 0.2 32.4
17:55 1016 30 845 24.95 29.4 84.9 15 0.2 32.4
18:00 1016 30 845 24.95 29.3 84.7 13 -1.1 30
18:05 1016 30 845 24.95 29.6 85.3 13 -0.9 30.4
18:10 1015 29.97 845 24.95 29.6 85.3 14 -0.1 31.7
18:15 1015 29.97 845 24.95 30.1 86.1 13 -0.5 31
18:20 1015 29.97 845 24.95 30.1 86.3 14 -0.1 31.7
18:25 1015 29.97 845 24.95 29.5 85 14 -0.5 31.1
18:30 1015 29.97 845 24.95 29.4 84.8 14 -0.8 30.5
18:35 1015 29.97 845 24.95 29.4 84.9 14 -0.2 31.6
18:40 1015 29.97 845 24.95 29.5 85.1 15 0.2 32.4
18:45 1015 29.97 844 24.92 29.3 84.8 15 0.1 32.1
18:50 1015 29.97 844 24.92 28.9 84.1 15 -0.1 31.9
18:55 1015 29.97 844 24.92 29.1 84.3 15 0.4 32.8
19:00 1015 29.97 844 24.92 29 84.2 15 -0.1 31.8
19:05 1015 29.97 844 24.92 29.1 84.3 15 -0.1 31.8
19:10 1015 29.97 844 24.92 29.2 84.6 14 -0.2 31.6
19:15 1015 29.97 844 24.92 28.9 84.1 15 -0.3 31.5
19:20 1015 29.97 844 24.92 28.7 83.7 15 0.1 32.2
19:25 1015 29.97 844 24.92 29 84.1 15 0.5 32.9
19:30 1015 29.97 844 24.92 28.9 84 15 0.2 32.4
19:35 1015 29.97 845 24.95 28.8 83.8 17 1.9 35.4
19:40 1016 30 845 24.95 28.3 83 18 1.9 35.4
19:45 1016 30 845 24.95 27.8 82 18 1.6 34.9
19:50 1016 30 845 24.95 27.3 81.1 20 2.6 36.7
19:55 1016 30 845 24.95 26.6 79.8 21 2.9 37.2
20:00 1015 29.97 845 24.95 26.1 79 21 2.7 36.8
20:05 1016 30 845 24.95 25.8 78.5 22 2.8 37.1
20:10 1016 30 845 24.95 25.6 78.1 23 3 37.5
20:15 1016 30 845 24.95 25.4 77.7 23 3 37.4
20:20 1016 30 845 24.95 25.2 77.3 23 3.1 37.5
20:25 1016 30 845 24.95 25 77 24 3.2 37.7
20:30 1016 30 845 24.95 24.9 76.7 24 3.3 37.9
20:35 1016 30 845 24.95 24.7 76.5 24 3.3 38
20:40 1016 30 845 24.95 24.6 76.3 25 3.4 38.1
20:45 1016 30 845 24.95 24.5 76.1 26 3.8 38.9
20:50 1016 30 845 24.95 24.2 75.6 26 3.8 38.9
20:55 1016 30 845 24.95 24 75.2 27 3.9 39.1
21:00 1016 30 845 24.95 23.9 75 27 4.2 39.5
21:05 1016 30 845 24.95 23.7 74.7 28 4.2 39.5
21:10 1016 30 845 24.95 23.5 74.4 28 4.3 39.8
21:15 1016 30 845 24.95 23.3 73.9 29 4.5 40.1
21:20 1016 30 846 24.98 23.1 73.5 29 4.5 40.1
21:25 1016 30 846 24.98 22.9 73.2 30 4.6 40.3
21:30 1016 30 846 24.98 22.7 72.9 31 4.7 40.5
21:35 1017 30.03 846 24.98 22.5 72.5 31 4.9 40.8
21:40 1017 30.03 846 24.98 22.3 72.1 32 4.8 40.6
21:45 1017 30.03 846 24.98 22.2 72 31 4.6 40.3
21:50 1017 30.03 846 24.98 22.4 72.2 31 4.8 40.6
21:55 1017 30.03 846 24.98 22.2 71.9 32 4.9 40.8
22:00 1017 30.03 846 24.98 21.9 71.4 32 4.8 40.6
22:05 1017 30.03 846 24.98 21.9 71.3 32 4.6 40.3
22:10 1017 30.03 846 24.98 21.9 71.3 32 4.6 40.3
22:15 1017 30.03 846 24.98 21.8 71.2 32 4.7 40.5
22:20 1017 30.03 846 24.98 21.5 70.7 33 4.7 40.4
22:25 1017 30.03 846 24.98 21.3 70.4 33 4.7 40.5
22:30 1017 30.03 846 24.98 21.2 70.1 34 4.8 40.6
22:35 1017 30.03 847 25.01 21 69.8 34 4.8 40.7
22:40 1017 30.03 847 25.01 20.9 69.6 35 4.9 40.8
22:45 1017 30.03 847 25.01 20.8 69.4 36 5.2 41.3
22:50 1017 30.03 847 25.01 20.6 69.1 36 5.2 41.4
22:55 1017 30.03 847 25.01 20.5 68.8 37 5.3 41.5
23:00 1018 30.06 847 25.01 20.3 68.5 37 5.3 41.6
23:05 1018 30.06 847 25.01 20.2 68.3 38 5.5 41.8
23:10 1018 30.06 847 25.01 20 68.1 39 5.7 42.2
23:15 1018 30.06 847 25.01 19.8 67.6 39 5.7 42.2
23:20 1018 30.06 847 25.01 19.7 67.4 40 5.8 42.5
23:25 1018 30.06 847 25.01 19.4 66.9 40 5.7 42.2
23:30 1018 30.06 847 25.01 19.3 66.7 41 5.9 42.5
23:35 1018 30.06 847 25.01 19 66.2 42 5.9 42.6
23:40 1018 30.06 847 25.01 18.8 65.9 42 5.9 42.7
23:45 1018 30.06 847 25.01 18.5 65.4 44 6.1 42.9
23:50 1018 30.06 847 25.01 18.3 64.9 44 6.1 43
23:55 1018 30.06 847 25.01 18.1 64.6 45 6.1 43
24:00 1018 30.06 847 25.01 18.1 64.5 44 5.9 42.6